sensor_id;sensor_type;location;lat;lon;timestamp;temperature;humidity
30097;DHT22;16915;51.466;3.610;2023-04-19T00:00:14;9.10;99.90
30097;DHT22;16915;51.466;3.610;2023-04-19T00:02:39;9.10;99.90
30097;DHT22;16915;51.466;3.610;2023-04-19T00:05:07;9.10;99.90
30097;DHT22;16915;51.466;3.610;2023-04-19T00:07:32;9.10;99.90
30097;DHT22;16915;51.466;3.610;2023-04-19T00:09:58;9.10;99.90
30097;DHT22;16915;51.466;3.610;2023-04-19T00:12:24;9.00;99.90
30097;DHT22;16915;51.466;3.610;2023-04-19T00:14:49;9.00;99.90
30097;DHT22;16915;51.466;3.610;2023-04-19T00:17:15;9.00;99.90
30097;DHT22;16915;51.466;3.610;2023-04-19T00:19:41;8.90;99.90
30097;DHT22;16915;51.466;3.610;2023-04-19T00:22:07;8.90;99.90
30097;DHT22;16915;51.466;3.610;2023-04-19T00:24:32;8.80;99.90
30097;DHT22;16915;51.466;3.610;2023-04-19T00:26:58;8.80;99.90
30097;DHT22;16915;51.466;3.610;2023-04-19T00:29:23;8.80;99.90
30097;DHT22;16915;51.466;3.610;2023-04-19T00:31:49;8.80;99.90
30097;DHT22;16915;51.466;3.610;2023-04-19T00:34:15;8.70;99.90
30097;DHT22;16915;51.466;3.610;2023-04-19T00:36:40;8.70;99.90
30097;DHT22;16915;51.466;3.610;2023-04-19T00:39:06;8.70;99.90
30097;DHT22;16915;51.466;3.610;2023-04-19T00:41:32;8.70;99.90
30097;DHT22;16915;51.466;3.610;2023-04-19T00:43:57;8.60;99.90
30097;DHT22;16915;51.466;3.610;2023-04-19T00:46:23;8.70;99.90
30097;DHT22;16915;51.466;3.610;2023-04-19T00:48:49;8.70;99.90
30097;DHT22;16915;51.466;3.610;2023-04-19T00:51:15;8.70;99.90
30097;DHT22;16915;51.466;3.610;2023-04-19T00:53:42;8.70;99.90
30097;DHT22;16915;51.466;3.610;2023-04-19T00:56:08;8.70;99.90
30097;DHT22;16915;51.466;3.610;2023-04-19T00:58:37;8.70;99.90
30097;DHT22;16915;51.466;3.610;2023-04-19T01:01:03;8.60;99.90
30097;DHT22;16915;51.466;3.610;2023-04-19T01:03:29;8.60;99.90
30097;DHT22;16915;51.466;3.610;2023-04-19T01:05:55;8.60;99.90
30097;DHT22;16915;51.466;3.610;2023-04-19T01:08:21;8.60;99.90
30097;DHT22;16915;51.466;3.610;2023-04-19T01:10:47;8.60;99.90
30097;DHT22;16915;51.466;3.610;2023-04-19T01:13:14;8.60;99.90
30097;DHT22;16915;51.466;3.610;2023-04-19T01:15:39;8.60;99.90
30097;DHT22;16915;51.466;3.610;2023-04-19T01:18:05;8.60;99.90
30097;DHT22;16915;51.466;3.610;2023-04-19T01:20:30;8.60;99.90
30097;DHT22;16915;51.466;3.610;2023-04-19T01:22:56;8.60;99.90
30097;DHT22;16915;51.466;3.610;2023-04-19T01:25:22;8.60;99.90
30097;DHT22;16915;51.466;3.610;2023-04-19T01:27:47;8.50;99.90
30097;DHT22;16915;51.466;3.610;2023-04-19T01:30:13;8.50;99.90
30097;DHT22;16915;51.466;3.610;2023-04-19T01:32:38;8.50;99.90
30097;DHT22;16915;51.466;3.610;2023-04-19T01:35:05;8.50;99.90
30097;DHT22;16915;51.466;3.610;2023-04-19T01:37:34;8.40;99.90
30097;DHT22;16915;51.466;3.610;2023-04-19T01:39:59;8.40;99.90
30097;DHT22;16915;51.466;3.610;2023-04-19T01:42:25;8.40;99.90
30097;DHT22;16915;51.466;3.610;2023-04-19T01:44:51;8.30;99.90
30097;DHT22;16915;51.466;3.610;2023-04-19T01:47:16;8.30;99.90
30097;DHT22;16915;51.466;3.610;2023-04-19T01:49:42;8.20;99.90
30097;DHT22;16915;51.466;3.610;2023-04-19T01:52:07;8.20;99.90
30097;DHT22;16915;51.466;3.610;2023-04-19T01:54:33;8.20;99.90
30097;DHT22;16915;51.466;3.610;2023-04-19T01:56:58;8.10;99.90
30097;DHT22;16915;51.466;3.610;2023-04-19T01:59:24;8.10;99.90
30097;DHT22;16915;51.466;3.610;2023-04-19T02:01:49;8.00;99.90
30097;DHT22;16915;51.466;3.610;2023-04-19T02:04:17;8.00;99.90
30097;DHT22;16915;51.466;3.610;2023-04-19T02:06:43;8.00;99.90
30097;DHT22;16915;51.466;3.610;2023-04-19T02:09:08;8.00;99.90
30097;DHT22;16915;51.466;3.610;2023-04-19T02:11:34;7.90;99.90
30097;DHT22;16915;51.466;3.610;2023-04-19T02:13:59;7.90;99.90
30097;DHT22;16915;51.466;3.610;2023-04-19T02:16:25;8.00;99.90
30097;DHT22;16915;51.466;3.610;2023-04-19T02:18:50;7.90;99.90
30097;DHT22;16915;51.466;3.610;2023-04-19T02:21:16;8.00;99.90
30097;DHT22;16915;51.466;3.610;2023-04-19T02:23:41;7.90;99.90
30097;DHT22;16915;51.466;3.610;2023-04-19T02:26:07;7.90;99.90
30097;DHT22;16915;51.466;3.610;2023-04-19T02:28:33;7.90;99.90
30097;DHT22;16915;51.466;3.610;2023-04-19T02:31:02;7.90;99.90
30097;DHT22;16915;51.466;3.610;2023-04-19T02:33:28;7.80;99.90
30097;DHT22;16915;51.466;3.610;2023-04-19T02:35:54;7.80;99.90
30097;DHT22;16915;51.466;3.610;2023-04-19T02:38:19;7.80;99.90
30097;DHT22;16915;51.466;3.610;2023-04-19T02:40:45;7.70;99.90
30097;DHT22;16915;51.466;3.610;2023-04-19T02:43:10;7.70;99.90
30097;DHT22;16915;51.466;3.610;2023-04-19T02:45:36;7.70;99.90
30097;DHT22;16915;51.466;3.610;2023-04-19T02:48:02;7.70;99.90
30097;DHT22;16915;51.466;3.610;2023-04-19T02:50:27;7.60;99.90
30097;DHT22;16915;51.466;3.610;2023-04-19T02:52:53;7.60;99.90
30097;DHT22;16915;51.466;3.610;2023-04-19T02:55:18;7.50;99.90
30097;DHT22;16915;51.466;3.610;2023-04-19T02:57:44;7.50;99.90
30097;DHT22;16915;51.466;3.610;2023-04-19T03:00:10;7.50;99.90
30097;DHT22;16915;51.466;3.610;2023-04-19T03:02:36;7.40;99.90
30097;DHT22;16915;51.466;3.610;2023-04-19T03:05:02;7.40;99.90
30097;DHT22;16915;51.466;3.610;2023-04-19T03:07:28;7.40;99.90
30097;DHT22;16915;51.466;3.610;2023-04-19T03:09:54;7.40;99.90
30097;DHT22;16915;51.466;3.610;2023-04-19T03:12:19;7.40;99.90
30097;DHT22;16915;51.466;3.610;2023-04-19T03:14:45;7.40;99.90
30097;DHT22;16915;51.466;3.610;2023-04-19T03:17:10;7.40;99.90
30097;DHT22;16915;51.466;3.610;2023-04-19T03:19:36;7.40;99.90
30097;DHT22;16915;51.466;3.610;2023-04-19T03:22:01;7.30;99.90
30097;DHT22;16915;51.466;3.610;2023-04-19T03:24:30;7.30;99.90
30097;DHT22;16915;51.466;3.610;2023-04-19T03:26:56;7.30;99.90
30097;DHT22;16915;51.466;3.610;2023-04-19T03:29:22;7.30;99.90
30097;DHT22;16915;51.466;3.610;2023-04-19T03:31:48;7.30;99.90
30097;DHT22;16915;51.466;3.610;2023-04-19T03:34:14;7.30;99.90
30097;DHT22;16915;51.466;3.610;2023-04-19T03:36:40;7.30;99.90
30097;DHT22;16915;51.466;3.610;2023-04-19T03:39:05;7.30;99.90
30097;DHT22;16915;51.466;3.610;2023-04-19T03:41:31;7.30;99.90
30097;DHT22;16915;51.466;3.610;2023-04-19T03:43:57;7.40;99.90
30097;DHT22;16915;51.466;3.610;2023-04-19T03:46:23;7.40;99.90
30097;DHT22;16915;51.466;3.610;2023-04-19T03:48:49;7.40;99.90
30097;DHT22;16915;51.466;3.610;2023-04-19T03:51:15;7.40;99.90
30097;DHT22;16915;51.466;3.610;2023-04-19T03:53:41;7.40;99.90
30097;DHT22;16915;51.466;3.610;2023-04-19T03:56:07;7.50;99.90
30097;DHT22;16915;51.466;3.610;2023-04-19T03:58:32;7.60;99.90
30097;DHT22;16915;51.466;3.610;2023-04-19T04:00:59;7.60;99.90
30097;DHT22;16915;51.466;3.610;2023-04-19T04:03:25;7.70;99.90
30097;DHT22;16915;51.466;3.610;2023-04-19T04:05:51;7.80;99.90
30097;DHT22;16915;51.466;3.610;2023-04-19T04:08:16;8.00;99.90
30097;DHT22;16915;51.466;3.610;2023-04-19T04:10:42;8.10;99.90
30097;DHT22;16915;51.466;3.610;2023-04-19T04:13:07;8.20;99.90
30097;DHT22;16915;51.466;3.610;2023-04-19T04:15:33;8.40;99.90
30097;DHT22;16915;51.466;3.610;2023-04-19T04:17:59;8.50;99.90
30097;DHT22;16915;51.466;3.610;2023-04-19T04:20:24;8.60;99.90
30097;DHT22;16915;51.466;3.610;2023-04-19T04:22:50;8.60;99.90
30097;DHT22;16915;51.466;3.610;2023-04-19T04:25:16;8.80;99.90
30097;DHT22;16915;51.466;3.610;2023-04-19T04:27:42;8.90;99.90
30097;DHT22;16915;51.466;3.610;2023-04-19T04:30:11;8.90;99.90
30097;DHT22;16915;51.466;3.610;2023-04-19T04:32:37;9.00;99.90
30097;DHT22;16915;51.466;3.610;2023-04-19T04:35:06;9.10;99.90
30097;DHT22;16915;51.466;3.610;2023-04-19T04:37:35;9.10;99.90
30097;DHT22;16915;51.466;3.610;2023-04-19T04:40:02;9.20;99.90
30097;DHT22;16915;51.466;3.610;2023-04-19T04:42:31;9.20;99.90
30097;DHT22;16915;51.466;3.610;2023-04-19T04:44:57;9.20;99.90
30097;DHT22;16915;51.466;3.610;2023-04-19T04:47:23;9.30;99.90
30097;DHT22;16915;51.466;3.610;2023-04-19T04:49:49;9.40;99.90
30097;DHT22;16915;51.466;3.610;2023-04-19T04:52:15;9.40;99.90
30097;DHT22;16915;51.466;3.610;2023-04-19T04:54:41;9.40;99.90
30097;DHT22;16915;51.466;3.610;2023-04-19T04:57:07;9.50;99.90
30097;DHT22;16915;51.466;3.610;2023-04-19T04:59:33;9.50;99.90
30097;DHT22;16915;51.466;3.610;2023-04-19T05:01:58;9.50;99.90
30097;DHT22;16915;51.466;3.610;2023-04-19T05:04:24;9.50;99.90
30097;DHT22;16915;51.466;3.610;2023-04-19T05:06:49;9.60;99.90
30097;DHT22;16915;51.466;3.610;2023-04-19T05:09:15;9.60;99.90
30097;DHT22;16915;51.466;3.610;2023-04-19T05:11:40;9.60;99.90
30097;DHT22;16915;51.466;3.610;2023-04-19T05:14:06;9.60;99.90
30097;DHT22;16915;51.466;3.610;2023-04-19T05:16:32;9.70;99.90
30097;DHT22;16915;51.466;3.610;2023-04-19T05:18:57;9.80;99.90
30097;DHT22;16915;51.466;3.610;2023-04-19T05:21:23;9.80;99.90
30097;DHT22;16915;51.466;3.610;2023-04-19T05:23:48;9.80;99.90
30097;DHT22;16915;51.466;3.610;2023-04-19T05:26:14;9.90;99.90
30097;DHT22;16915;51.466;3.610;2023-04-19T05:28:40;9.90;99.90
30097;DHT22;16915;51.466;3.610;2023-04-19T05:31:10;10.00;99.90
30097;DHT22;16915;51.466;3.610;2023-04-19T05:33:35;10.10;99.90
30097;DHT22;16915;51.466;3.610;2023-04-19T05:36:01;10.10;99.90
30097;DHT22;16915;51.466;3.610;2023-04-19T05:38:26;10.10;99.90
30097;DHT22;16915;51.466;3.610;2023-04-19T05:40:52;10.20;99.90
30097;DHT22;16915;51.466;3.610;2023-04-19T05:43:17;10.20;99.90
30097;DHT22;16915;51.466;3.610;2023-04-19T05:45:43;10.20;99.90
30097;DHT22;16915;51.466;3.610;2023-04-19T05:48:08;10.20;99.90
30097;DHT22;16915;51.466;3.610;2023-04-19T05:50:34;10.10;99.90
30097;DHT22;16915;51.466;3.610;2023-04-19T05:53:03;10.10;99.90
30097;DHT22;16915;51.466;3.610;2023-04-19T05:55:28;10.10;99.90
30097;DHT22;16915;51.466;3.610;2023-04-19T05:57:54;10.10;99.90
30097;DHT22;16915;51.466;3.610;2023-04-19T06:00:20;10.10;99.90
30097;DHT22;16915;51.466;3.610;2023-04-19T06:02:45;10.20;99.90
30097;DHT22;16915;51.466;3.610;2023-04-19T06:05:11;10.20;99.90
30097;DHT22;16915;51.466;3.610;2023-04-19T06:07:36;10.30;99.90
30097;DHT22;16915;51.466;3.610;2023-04-19T06:10:02;10.30;99.90
30097;DHT22;16915;51.466;3.610;2023-04-19T06:12:28;10.30;99.90
30097;DHT22;16915;51.466;3.610;2023-04-19T06:14:54;10.40;99.90
30097;DHT22;16915;51.466;3.610;2023-04-19T06:17:19;10.50;99.90
30097;DHT22;16915;51.466;3.610;2023-04-19T06:19:53;10.50;99.90
30097;DHT22;16915;51.466;3.610;2023-04-19T06:22:19;10.60;99.90
30097;DHT22;16915;51.466;3.610;2023-04-19T06:24:45;10.70;99.90
30097;DHT22;16915;51.466;3.610;2023-04-19T06:27:11;10.80;99.90
30097;DHT22;16915;51.466;3.610;2023-04-19T06:29:37;10.90;99.90
30097;DHT22;16915;51.466;3.610;2023-04-19T06:32:02;10.90;99.90
30097;DHT22;16915;51.466;3.610;2023-04-19T06:34:28;10.90;99.90
30097;DHT22;16915;51.466;3.610;2023-04-19T06:36:54;10.90;99.90
30097;DHT22;16915;51.466;3.610;2023-04-19T06:39:19;10.90;99.90
30097;DHT22;16915;51.466;3.610;2023-04-19T06:41:45;10.90;99.90
30097;DHT22;16915;51.466;3.610;2023-04-19T06:44:10;11.00;99.90
30097;DHT22;16915;51.466;3.610;2023-04-19T06:46:37;10.90;99.90
30097;DHT22;16915;51.466;3.610;2023-04-19T06:49:03;11.00;99.90
30097;DHT22;16915;51.466;3.610;2023-04-19T06:51:28;11.00;99.90
30097;DHT22;16915;51.466;3.610;2023-04-19T06:53:54;11.00;99.90
30097;DHT22;16915;51.466;3.610;2023-04-19T06:56:42;11.10;99.90
30097;DHT22;16915;51.466;3.610;2023-04-19T06:59:10;11.30;99.90
30097;DHT22;16915;51.466;3.610;2023-04-19T07:01:37;11.50;99.90
30097;DHT22;16915;51.466;3.610;2023-04-19T07:04:02;11.60;99.90
30097;DHT22;16915;51.466;3.610;2023-04-19T07:06:28;11.60;99.90
30097;DHT22;16915;51.466;3.610;2023-04-19T07:08:54;11.60;99.90
30097;DHT22;16915;51.466;3.610;2023-04-19T07:11:19;11.70;99.90
30097;DHT22;16915;51.466;3.610;2023-04-19T07:13:45;11.70;99.90
30097;DHT22;16915;51.466;3.610;2023-04-19T07:16:10;11.70;99.90
30097;DHT22;16915;51.466;3.610;2023-04-19T07:18:37;11.80;99.90
30097;DHT22;16915;51.466;3.610;2023-04-19T07:21:03;11.70;99.90
30097;DHT22;16915;51.466;3.610;2023-04-19T07:23:28;11.70;99.90
30097;DHT22;16915;51.466;3.610;2023-04-19T07:25:55;11.80;99.90
30097;DHT22;16915;51.466;3.610;2023-04-19T07:28:20;11.80;99.90
30097;DHT22;16915;51.466;3.610;2023-04-19T07:30:46;11.90;99.90
30097;DHT22;16915;51.466;3.610;2023-04-19T07:33:11;11.90;99.90
30097;DHT22;16915;51.466;3.610;2023-04-19T07:35:40;12.00;99.90
30097;DHT22;16915;51.466;3.610;2023-04-19T07:38:06;12.00;99.90
30097;DHT22;16915;51.466;3.610;2023-04-19T07:40:31;12.10;99.90
30097;DHT22;16915;51.466;3.610;2023-04-19T07:42:57;12.10;99.90
30097;DHT22;16915;51.466;3.610;2023-04-19T07:45:22;12.10;99.90
30097;DHT22;16915;51.466;3.610;2023-04-19T07:47:48;12.20;99.90
30097;DHT22;16915;51.466;3.610;2023-04-19T07:50:14;12.10;99.90
30097;DHT22;16915;51.466;3.610;2023-04-19T07:52:40;12.20;99.90
30097;DHT22;16915;51.466;3.610;2023-04-19T07:55:06;12.20;99.90
30097;DHT22;16915;51.466;3.610;2023-04-19T07:57:33;12.20;99.90
30097;DHT22;16915;51.466;3.610;2023-04-19T07:59:58;12.30;99.90
30097;DHT22;16915;51.466;3.610;2023-04-19T08:02:25;12.40;99.90
30097;DHT22;16915;51.466;3.610;2023-04-19T08:04:52;12.40;99.90
30097;DHT22;16915;51.466;3.610;2023-04-19T08:07:17;12.60;99.90
30097;DHT22;16915;51.466;3.610;2023-04-19T08:09:43;12.70;99.90
30097;DHT22;16915;51.466;3.610;2023-04-19T08:12:08;12.80;99.90
30097;DHT22;16915;51.466;3.610;2023-04-19T08:14:34;12.90;99.90
30097;DHT22;16915;51.466;3.610;2023-04-19T08:16:59;13.00;99.90
30097;DHT22;16915;51.466;3.610;2023-04-19T08:19:25;13.00;99.90
30097;DHT22;16915;51.466;3.610;2023-04-19T08:21:50;13.10;99.90
30097;DHT22;16915;51.466;3.610;2023-04-19T08:24:16;13.10;99.90
30097;DHT22;16915;51.466;3.610;2023-04-19T08:26:42;13.10;99.90
30097;DHT22;16915;51.466;3.610;2023-04-19T08:29:07;13.20;99.90
30097;DHT22;16915;51.466;3.610;2023-04-19T08:31:33;13.30;99.90
30097;DHT22;16915;51.466;3.610;2023-04-19T08:33:58;13.30;99.90
30097;DHT22;16915;51.466;3.610;2023-04-19T08:36:24;13.40;99.90
30097;DHT22;16915;51.466;3.610;2023-04-19T08:38:52;13.50;99.90
30097;DHT22;16915;51.466;3.610;2023-04-19T08:41:18;13.50;99.90
30097;DHT22;16915;51.466;3.610;2023-04-19T08:43:45;13.50;99.90
30097;DHT22;16915;51.466;3.610;2023-04-19T08:46:11;13.50;99.90
30097;DHT22;16915;51.466;3.610;2023-04-19T08:48:37;13.50;99.90
30097;DHT22;16915;51.466;3.610;2023-04-19T08:51:04;13.50;99.90
30097;DHT22;16915;51.466;3.610;2023-04-19T08:53:32;13.60;99.90
30097;DHT22;16915;51.466;3.610;2023-04-19T08:56:00;13.60;99.90
30097;DHT22;16915;51.466;3.610;2023-04-19T08:58:25;13.70;99.90
30097;DHT22;16915;51.466;3.610;2023-04-19T09:00:54;13.80;99.90
30097;DHT22;16915;51.466;3.610;2023-04-19T09:03:20;14.00;99.90
30097;DHT22;16915;51.466;3.610;2023-04-19T09:05:45;14.10;99.90
30097;DHT22;16915;51.466;3.610;2023-04-19T09:08:20;14.10;99.90
30097;DHT22;16915;51.466;3.610;2023-04-19T09:10:57;14.10;99.90
30097;DHT22;16915;51.466;3.610;2023-04-19T09:13:23;14.10;99.90
30097;DHT22;16915;51.466;3.610;2023-04-19T09:15:49;14.20;99.90
30097;DHT22;16915;51.466;3.610;2023-04-19T09:18:15;14.30;99.90
30097;DHT22;16915;51.466;3.610;2023-04-19T09:20:42;14.40;99.90
30097;DHT22;16915;51.466;3.610;2023-04-19T09:23:15;14.40;99.90
30097;DHT22;16915;51.466;3.610;2023-04-19T09:25:55;14.50;99.90
30097;DHT22;16915;51.466;3.610;2023-04-19T09:28:22;14.50;99.90
30097;DHT22;16915;51.466;3.610;2023-04-19T09:30:48;14.50;99.90
30097;DHT22;16915;51.466;3.610;2023-04-19T09:33:33;14.50;99.90
30097;DHT22;16915;51.466;3.610;2023-04-19T09:36:00;14.50;99.90
30097;DHT22;16915;51.466;3.610;2023-04-19T09:38:26;14.50;99.90
30097;DHT22;16915;51.466;3.610;2023-04-19T09:40:52;14.50;99.90
30097;DHT22;16915;51.466;3.610;2023-04-19T09:43:29;14.70;99.90
30097;DHT22;16915;51.466;3.610;2023-04-19T09:45:54;14.80;99.90
30097;DHT22;16915;51.466;3.610;2023-04-19T09:48:22;14.80;99.90
30097;DHT22;16915;51.466;3.610;2023-04-19T09:50:58;14.90;99.90
30097;DHT22;16915;51.466;3.610;2023-04-19T09:53:25;14.90;99.90
30097;DHT22;16915;51.466;3.610;2023-04-19T09:55:52;14.90;99.90
30097;DHT22;16915;51.466;3.610;2023-04-19T09:58:19;14.90;99.90
30097;DHT22;16915;51.466;3.610;2023-04-19T10:00:45;15.10;99.90
30097;DHT22;16915;51.466;3.610;2023-04-19T10:03:13;15.20;99.90
30097;DHT22;16915;51.466;3.610;2023-04-19T10:05:40;15.20;99.90
30097;DHT22;16915;51.466;3.610;2023-04-19T10:08:07;15.30;99.90
30097;DHT22;16915;51.466;3.610;2023-04-19T10:10:33;15.30;99.90
30097;DHT22;16915;51.466;3.610;2023-04-19T10:13:02;15.50;99.90
30097;DHT22;16915;51.466;3.610;2023-04-19T10:15:29;15.70;99.90
30097;DHT22;16915;51.466;3.610;2023-04-19T10:17:55;15.90;99.90
30097;DHT22;16915;51.466;3.610;2023-04-19T10:22:54;16.00;99.90
30097;DHT22;16915;51.466;3.610;2023-04-19T10:25:27;16.30;99.90
30097;DHT22;16915;51.466;3.610;2023-04-19T10:27:54;16.40;99.90
30097;DHT22;16915;51.466;3.610;2023-04-19T10:30:21;16.60;99.90
30097;DHT22;16915;51.466;3.610;2023-04-19T10:32:55;16.90;99.90
30097;DHT22;16915;51.466;3.610;2023-04-19T10:35:27;17.20;99.90
30097;DHT22;16915;51.466;3.610;2023-04-19T10:38:12;17.10;99.90
30097;DHT22;16915;51.466;3.610;2023-04-19T10:45:58;17.70;99.90
30097;DHT22;16915;51.466;3.610;2023-04-19T10:56:15;18.70;99.90
30097;DHT22;16915;51.466;3.610;2023-04-19T11:04:15;18.70;99.90
30097;DHT22;16915;51.466;3.610;2023-04-19T11:09:23;19.20;99.90
30097;DHT22;16915;51.466;3.610;2023-04-19T11:11:50;18.90;99.90
30097;DHT22;16915;51.466;3.610;2023-04-19T11:14:16;19.00;99.90
30097;DHT22;16915;51.466;3.610;2023-04-19T11:16:42;19.10;99.90
30097;DHT22;16915;51.466;3.610;2023-04-19T11:19:07;19.30;99.90
30097;DHT22;16915;51.466;3.610;2023-04-19T11:21:38;19.30;99.90
30097;DHT22;16915;51.466;3.610;2023-04-19T11:24:08;19.20;99.90
30097;DHT22;16915;51.466;3.610;2023-04-19T11:26:34;19.20;99.90
30097;DHT22;16915;51.466;3.610;2023-04-19T11:29:00;19.30;99.90
30097;DHT22;16915;51.466;3.610;2023-04-19T11:31:26;19.30;99.70
30097;DHT22;16915;51.466;3.610;2023-04-19T11:33:51;19.50;99.10
30097;DHT22;16915;51.466;3.610;2023-04-19T11:36:17;19.40;99.60
30097;DHT22;16915;51.466;3.610;2023-04-19T11:38:49;19.50;99.30
30097;DHT22;16915;51.466;3.610;2023-04-19T11:41:14;19.60;99.10
30097;DHT22;16915;51.466;3.610;2023-04-19T11:43:40;19.80;98.60
30097;DHT22;16915;51.466;3.610;2023-04-19T11:46:10;19.60;97.90
30097;DHT22;16915;51.466;3.610;2023-04-19T11:48:37;19.50;98.00
30097;DHT22;16915;51.466;3.610;2023-04-19T11:51:03;19.50;96.80
30097;DHT22;16915;51.466;3.610;2023-04-19T11:53:32;19.70;96.60
30097;DHT22;16915;51.466;3.610;2023-04-19T11:56:08;19.90;95.30
30097;DHT22;16915;51.466;3.610;2023-04-19T11:58:39;19.90;93.20
30097;DHT22;16915;51.466;3.610;2023-04-19T12:01:07;19.80;93.00
30097;DHT22;16915;51.466;3.610;2023-04-19T12:03:53;19.90;92.80
30097;DHT22;16915;51.466;3.610;2023-04-19T12:06:27;20.10;91.40
30097;DHT22;16915;51.466;3.610;2023-04-19T12:08:53;20.10;89.50
30097;DHT22;16915;51.466;3.610;2023-04-19T12:11:22;19.90;89.10
30097;DHT22;16915;51.466;3.610;2023-04-19T12:14:12;19.40;90.40
30097;DHT22;16915;51.466;3.610;2023-04-19T12:16:38;19.40;91.30
30097;DHT22;16915;51.466;3.610;2023-04-19T12:19:14;19.70;90.60
30097;DHT22;16915;51.466;3.610;2023-04-19T12:21:42;19.90;91.10
30097;DHT22;16915;51.466;3.610;2023-04-19T12:24:08;20.30;90.90
30097;DHT22;16915;51.466;3.610;2023-04-19T12:26:34;20.40;89.40
30097;DHT22;16915;51.466;3.610;2023-04-19T12:29:01;20.30;88.30
30097;DHT22;16915;51.466;3.610;2023-04-19T12:31:27;20.70;89.30
30097;DHT22;16915;51.466;3.610;2023-04-19T12:33:54;21.00;85.90
30097;DHT22;16915;51.466;3.610;2023-04-19T12:36:20;20.80;84.20
30097;DHT22;16915;51.466;3.610;2023-04-19T12:38:45;20.60;80.80
30097;DHT22;16915;51.466;3.610;2023-04-19T12:41:11;20.50;80.30
30097;DHT22;16915;51.466;3.610;2023-04-19T12:43:36;20.80;80.20
30097;DHT22;16915;51.466;3.610;2023-04-19T12:46:02;20.90;76.50
30097;DHT22;16915;51.466;3.610;2023-04-19T12:48:28;20.50;77.60
30097;DHT22;16915;51.466;3.610;2023-04-19T12:50:53;20.50;75.20
30097;DHT22;16915;51.466;3.610;2023-04-19T12:53:20;20.70;75.90
30097;DHT22;16915;51.466;3.610;2023-04-19T12:55:48;20.90;75.60
30097;DHT22;16915;51.466;3.610;2023-04-19T12:58:18;21.00;74.40
30097;DHT22;16915;51.466;3.610;2023-04-19T13:00:45;20.80;72.90
30097;DHT22;16915;51.466;3.610;2023-04-19T13:03:10;20.80;74.60
30097;DHT22;16915;51.466;3.610;2023-04-19T13:05:39;20.90;74.50
30097;DHT22;16915;51.466;3.610;2023-04-19T13:08:05;20.80;72.70
30097;DHT22;16915;51.466;3.610;2023-04-19T13:10:31;20.40;71.10
30097;DHT22;16915;51.466;3.610;2023-04-19T13:12:56;20.50;72.60
30097;DHT22;16915;51.466;3.610;2023-04-19T13:15:23;20.80;74.00
30097;DHT22;16915;51.466;3.610;2023-04-19T13:17:49;20.90;73.80
30097;DHT22;16915;51.466;3.610;2023-04-19T13:20:15;20.90;71.30
30097;DHT22;16915;51.466;3.610;2023-04-19T13:22:40;20.70;72.60
30097;DHT22;16915;51.466;3.610;2023-04-19T13:25:06;21.00;72.50
30097;DHT22;16915;51.466;3.610;2023-04-19T13:27:32;21.00;72.60
30097;DHT22;16915;51.466;3.610;2023-04-19T13:29:57;20.80;72.20
30097;DHT22;16915;51.466;3.610;2023-04-19T13:32:23;20.70;71.30
30097;DHT22;16915;51.466;3.610;2023-04-19T13:34:48;20.60;71.80
30097;DHT22;16915;51.466;3.610;2023-04-19T13:37:14;20.60;73.90
30097;DHT22;16915;51.466;3.610;2023-04-19T13:39:39;20.80;72.10
30097;DHT22;16915;51.466;3.610;2023-04-19T13:42:05;20.80;71.60
30097;DHT22;16915;51.466;3.610;2023-04-19T13:44:31;20.50;72.40
30097;DHT22;16915;51.466;3.610;2023-04-19T13:46:57;20.60;71.40
30097;DHT22;16915;51.466;3.610;2023-04-19T13:49:22;21.10;73.10
30097;DHT22;16915;51.466;3.610;2023-04-19T13:51:48;21.60;71.00
30097;DHT22;16915;51.466;3.610;2023-04-19T13:54:14;21.70;71.90
30097;DHT22;16915;51.466;3.610;2023-04-19T13:56:42;22.00;71.30
30097;DHT22;16915;51.466;3.610;2023-04-19T13:59:07;22.20;71.00
30097;DHT22;16915;51.466;3.610;2023-04-19T14:01:34;22.60;72.10
30097;DHT22;16915;51.466;3.610;2023-04-19T14:04:00;22.80;70.50
30097;DHT22;16915;51.466;3.610;2023-04-19T14:06:25;22.60;68.30
30097;DHT22;16915;51.466;3.610;2023-04-19T14:08:52;22.10;69.60
30097;DHT22;16915;51.466;3.610;2023-04-19T14:11:17;22.00;70.00
30097;DHT22;16915;51.466;3.610;2023-04-19T14:13:43;22.30;69.70
30097;DHT22;16915;51.466;3.610;2023-04-19T14:16:09;22.40;70.10
30097;DHT22;16915;51.466;3.610;2023-04-19T14:18:35;23.00;69.40
30097;DHT22;16915;51.466;3.610;2023-04-19T14:21:00;22.80;67.90
30097;DHT22;16915;51.466;3.610;2023-04-19T14:23:26;22.50;68.20
30097;DHT22;16915;51.466;3.610;2023-04-19T14:25:52;22.50;68.10
30097;DHT22;16915;51.466;3.610;2023-04-19T14:28:18;22.60;68.60
30097;DHT22;16915;51.466;3.610;2023-04-19T14:30:43;22.60;65.00
30097;DHT22;16915;51.466;3.610;2023-04-19T14:33:09;22.30;67.20
30097;DHT22;16915;51.466;3.610;2023-04-19T14:35:35;21.90;66.00
30097;DHT22;16915;51.466;3.610;2023-04-19T14:38:00;21.80;67.70
30097;DHT22;16915;51.466;3.610;2023-04-19T14:40:26;22.10;67.30
30097;DHT22;16915;51.466;3.610;2023-04-19T14:42:51;22.20;65.20
30097;DHT22;16915;51.466;3.610;2023-04-19T14:45:17;22.00;65.90
30097;DHT22;16915;51.466;3.610;2023-04-19T14:47:43;22.00;64.10
30097;DHT22;16915;51.466;3.610;2023-04-19T14:50:09;21.80;66.00
30097;DHT22;16915;51.466;3.610;2023-04-19T14:52:34;21.60;68.00
30097;DHT22;16915;51.466;3.610;2023-04-19T14:55:00;21.60;67.90
30097;DHT22;16915;51.466;3.610;2023-04-19T14:57:26;21.80;68.60
30097;DHT22;16915;51.466;3.610;2023-04-19T14:59:55;22.00;67.90
30097;DHT22;16915;51.466;3.610;2023-04-19T15:02:25;21.80;67.60
30097;DHT22;16915;51.466;3.610;2023-04-19T15:04:52;21.60;66.80
30097;DHT22;16915;51.466;3.610;2023-04-19T15:07:17;21.80;65.00
30097;DHT22;16915;51.466;3.610;2023-04-19T15:09:43;21.60;65.20
30097;DHT22;16915;51.466;3.610;2023-04-19T15:12:09;21.70;65.50
30097;DHT22;16915;51.466;3.610;2023-04-19T15:14:34;21.60;66.70
30097;DHT22;16915;51.466;3.610;2023-04-19T15:17:00;21.40;64.50
30097;DHT22;16915;51.466;3.610;2023-04-19T15:19:26;20.50;65.00
30097;DHT22;16915;51.466;3.610;2023-04-19T15:21:52;19.50;69.30
30097;DHT22;16915;51.466;3.610;2023-04-19T15:24:18;18.60;69.80
30097;DHT22;16915;51.466;3.610;2023-04-19T15:26:43;17.90;70.40
30097;DHT22;16915;51.466;3.610;2023-04-19T15:29:09;17.30;71.00
30097;DHT22;16915;51.466;3.610;2023-04-19T15:31:34;17.10;72.10
30097;DHT22;16915;51.466;3.610;2023-04-19T15:34:01;17.40;69.70
30097;DHT22;16915;51.466;3.610;2023-04-19T15:36:27;18.20;71.10
30097;DHT22;16915;51.466;3.610;2023-04-19T15:38:53;19.20;69.70
30097;DHT22;16915;51.466;3.610;2023-04-19T15:41:18;20.10;67.80
30097;DHT22;16915;51.466;3.610;2023-04-19T15:43:44;20.50;66.40
30097;DHT22;16915;51.466;3.610;2023-04-19T15:46:13;20.30;67.30
30097;DHT22;16915;51.466;3.610;2023-04-19T15:48:39;19.60;66.70
30097;DHT22;16915;51.466;3.610;2023-04-19T15:51:05;18.80;69.30
30097;DHT22;16915;51.466;3.610;2023-04-19T15:53:32;18.10;67.70
30097;DHT22;16915;51.466;3.610;2023-04-19T15:55:58;17.40;68.80